createdAt,value
2018-09-03T00:00:27.360Z,4.20
2018-09-03T00:01:27.342Z,3.90
2018-09-03T00:02:27.328Z,4.60
2018-09-03T00:03:27.311Z,4.00
2018-09-03T00:04:27.298Z,4.50
2018-09-03T00:05:27.280Z,3.90
2018-09-03T00:06:27.265Z,3.70
2018-09-03T00:07:27.250Z,4.50
2018-09-03T00:08:27.230Z,4.30
2018-09-03T00:09:27.219Z,4.40
2018-09-03T00:10:27.200Z,4.10
2018-09-03T00:11:27.185Z,4.90
2018-09-03T00:12:27.169Z,4.10
2018-09-03T00:13:27.152Z,4.00
2018-09-03T00:14:27.143Z,4.60
2018-09-03T00:15:27.122Z,4.70
2018-09-03T00:16:27.104Z,4.00
2018-09-03T00:17:27.093Z,4.80
2018-09-03T00:18:27.072Z,4.30
2018-09-03T00:19:27.058Z,4.20
2018-09-03T00:20:27.040Z,3.90
2018-09-03T00:21:27.026Z,4.70
2018-09-03T00:22:27.016Z,4.90
2018-09-03T00:23:26.993Z,5.20
2018-09-03T00:24:26.982Z,4.60
2018-09-03T00:25:26.965Z,4.30
2018-09-03T00:26:26.947Z,4.00
2018-09-03T00:27:26.936Z,4.80
2018-09-03T00:28:26.916Z,4.60
2018-09-03T00:29:26.899Z,4.60
2018-09-03T00:30:26.883Z,4.80
2018-09-03T00:31:26.869Z,4.40
2018-09-03T00:32:26.852Z,4.40
2018-09-03T00:33:26.835Z,4.90
2018-09-03T00:34:26.824Z,4.40
2018-09-03T00:35:26.804Z,4.50
2018-09-03T00:36:26.790Z,4.20
2018-09-03T00:37:26.773Z,4.70
2018-09-03T00:38:26.758Z,4.40
2018-09-03T00:39:26.742Z,5.10
2018-09-03T00:40:26.726Z,4.20
2018-09-03T00:41:26.712Z,4.20
2018-09-03T00:42:26.694Z,4.50
2018-09-03T00:43:26.689Z,4.50
2018-09-03T00:44:26.662Z,4.60
2018-09-03T00:45:26.646Z,4.20
2018-09-03T00:46:26.630Z,4.30
2018-09-03T00:47:26.617Z,4.20
2018-09-03T00:48:26.603Z,4.40
2018-09-03T00:49:26.584Z,4.90
2018-09-03T00:50:26.569Z,4.90
2018-09-03T00:51:26.550Z,4.10
2018-09-03T00:52:26.540Z,4.50
2018-09-03T00:53:26.520Z,4.20
2018-09-03T00:54:26.505Z,4.00
2018-09-03T00:55:26.486Z,4.70
2018-09-03T00:56:26.470Z,4.60
2018-09-03T00:57:26.461Z,4.30
2018-09-03T00:58:26.439Z,4.30
2018-09-03T00:59:26.573Z,4.40
2018-09-03T01:00:26.410Z,4.40
2018-09-03T01:01:26.389Z,4.80
2018-09-03T01:02:26.373Z,4.60
2018-09-03T01:03:26.357Z,4.40
2018-09-03T01:04:26.348Z,4.40
2018-09-03T01:05:26.330Z,4.50
2018-09-03T01:06:26.319Z,5.00
2018-09-03T01:07:26.295Z,4.50
2018-09-03T01:08:26.279Z,4.70
2018-09-03T01:09:26.263Z,4.10
2018-09-03T01:10:26.250Z,4.10
2018-09-03T01:11:26.233Z,4.30
2018-09-03T01:12:26.215Z,4.70
2018-09-03T01:13:26.207Z,4.00
2018-09-03T01:14:26.184Z,4.40
2018-09-03T01:15:26.167Z,4.10
2018-09-03T01:16:26.150Z,4.50
2018-09-03T01:17:26.135Z,4.70
2018-09-03T01:18:26.119Z,4.50
2018-09-03T01:19:26.102Z,4.00
2018-09-03T01:20:26.086Z,4.60
2018-09-03T01:21:26.072Z,4.30
2018-09-03T01:22:26.055Z,4.90
2018-09-03T01:23:26.039Z,4.40
2018-09-03T01:24:26.026Z,5.00
2018-09-03T01:25:26.006Z,4.40
2018-09-03T01:26:25.990Z,4.20
2018-09-03T01:27:25.974Z,4.50
2018-09-03T01:28:25.961Z,4.70
2018-09-03T01:29:25.963Z,5.10
2018-09-03T01:30:25.926Z,4.60
2018-09-03T01:31:25.907Z,4.80
2018-09-03T01:32:25.893Z,4.50
2018-09-03T01:33:25.877Z,4.60
2018-09-03T01:34:25.861Z,4.50
2018-09-03T01:35:25.857Z,4.10
2018-09-03T01:36:25.828Z,4.20
2018-09-03T01:37:25.820Z,4.60
2018-09-03T01:38:25.799Z,4.60
2018-09-03T01:39:25.783Z,4.40
2018-09-03T01:40:25.767Z,4.30
2018-09-03T01:41:25.750Z,4.40
2018-09-03T01:42:25.736Z,4.10
2018-09-03T01:43:25.718Z,3.90
2018-09-03T01:44:25.700Z,4.40
2018-09-03T01:45:25.684Z,4.30
2018-09-03T01:46:25.672Z,4.60
2018-09-03T01:47:25.652Z,4.40
2018-09-03T01:48:25.636Z,4.40
2018-09-03T01:49:25.621Z,4.20
2018-09-03T01:50:25.602Z,4.50
2018-09-03T01:51:25.587Z,4.40
2018-09-03T01:52:25.571Z,4.50
2018-09-03T01:53:25.558Z,4.60
2018-09-03T01:54:25.540Z,4.90
2018-09-03T01:55:25.524Z,4.60
2018-09-03T01:56:25.511Z,4.20
2018-09-03T01:57:25.491Z,4.20
2018-09-03T01:58:25.476Z,4.50
2018-09-03T01:59:25.459Z,4.40
2018-09-03T02:00:25.440Z,4.50
2018-09-03T02:01:25.426Z,4.20
2018-09-03T02:02:25.409Z,4.60
2018-09-03T02:03:25.393Z,4.70
2018-09-03T02:04:25.377Z,4.10
2018-09-03T02:05:25.364Z,4.10
2018-09-03T02:06:25.343Z,4.80
2018-09-03T02:07:25.329Z,5.40
2018-09-03T02:08:25.313Z,4.40
2018-09-03T02:09:25.297Z,4.80
2018-09-03T02:10:25.279Z,4.80
2018-09-03T02:11:25.269Z,4.20
2018-09-03T02:12:25.246Z,4.80
2018-09-03T02:13:25.233Z,4.40
2018-09-03T02:14:25.212Z,5.10
2018-09-03T02:15:25.197Z,4.40
2018-09-03T02:16:25.183Z,5.10
2018-09-03T02:17:25.169Z,5.10
2018-09-03T02:18:25.152Z,5.40
2018-09-03T02:19:25.134Z,5.00
2018-09-03T02:20:25.118Z,4.50
2018-09-03T02:21:25.103Z,4.90
2018-09-03T02:22:25.085Z,5.00
2018-09-03T02:23:25.070Z,4.50
2018-09-03T02:24:25.050Z,4.90
2018-09-03T02:25:25.035Z,4.90
2018-09-03T02:26:25.021Z,4.80
2018-09-03T02:27:25.004Z,5.60
2018-09-03T02:28:24.988Z,4.60
2018-09-03T02:29:24.968Z,5.20
2018-09-03T02:30:24.953Z,5.20
2018-09-03T02:31:24.936Z,4.90
2018-09-03T02:32:24.921Z,5.10
2018-09-03T02:33:24.904Z,4.30
2018-09-03T02:34:24.890Z,4.90
2018-09-03T02:35:24.873Z,4.40
2018-09-03T02:36:24.868Z,4.50
2018-09-03T02:37:24.849Z,4.90
2018-09-03T02:38:24.827Z,4.50
2018-09-03T02:39:24.808Z,4.70
2018-09-03T02:40:24.794Z,5.30
2018-09-03T02:41:24.776Z,5.30
2018-09-03T02:42:24.760Z,4.60
2018-09-03T02:43:24.742Z,4.70
2018-09-03T02:44:24.727Z,4.90
2018-09-03T02:45:24.713Z,4.70
2018-09-03T02:46:24.695Z,4.60
2018-09-03T02:47:24.678Z,5.30
2018-09-03T02:48:24.663Z,5.40
2018-09-03T02:49:24.647Z,4.40
2018-09-03T02:50:24.631Z,5.60
2018-09-03T02:51:24.613Z,5.00
2018-09-03T02:52:24.597Z,5.60
2018-09-03T02:53:24.591Z,6.10
2018-09-03T02:54:24.565Z,5.60
2018-09-03T02:55:24.548Z,5.70
2018-09-03T02:56:24.532Z,5.10
2018-09-03T02:57:24.517Z,5.10
2018-09-03T02:58:24.500Z,6.30
2018-09-03T02:59:24.492Z,5.20
2018-09-03T03:00:24.470Z,5.80
2018-09-03T03:01:24.452Z,6.30
2018-09-03T03:02:24.435Z,5.50
2018-09-03T03:03:24.421Z,5.50
2018-09-03T03:04:24.414Z,5.30
2018-09-03T03:05:24.389Z,5.70
2018-09-03T03:06:24.374Z,5.60
2018-09-03T03:07:24.355Z,5.90
2018-09-03T03:08:24.339Z,5.60
2018-09-03T03:09:24.324Z,5.60
2018-09-03T03:10:24.311Z,5.60
2018-09-03T03:11:24.295Z,5.80
2018-09-03T03:12:24.274Z,5.20
2018-09-03T03:13:24.258Z,5.30
2018-09-03T03:14:24.251Z,5.70
2018-09-03T03:15:24.233Z,5.70
2018-09-03T03:16:24.211Z,6.00
2018-09-03T03:17:24.195Z,6.10
2018-09-03T03:18:24.179Z,5.80
2018-09-03T03:19:24.160Z,5.50
2018-09-03T03:20:24.144Z,6.50
2018-09-03T03:21:24.127Z,5.70
2018-09-03T03:22:24.111Z,5.50
2018-09-03T03:23:24.093Z,6.10
2018-09-03T03:24:24.084Z,6.00
2018-09-03T03:25:24.060Z,6.20
2018-09-03T03:26:24.044Z,5.60
2018-09-03T03:27:24.026Z,5.60
2018-09-03T03:28:24.012Z,6.10
2018-09-03T03:29:23.995Z,6.30
2018-09-03T03:30:23.982Z,5.80
2018-09-03T03:31:23.963Z,5.90
2018-09-03T03:32:23.945Z,5.80
2018-09-03T03:33:23.936Z,5.70
2018-09-03T03:34:23.928Z,5.90
2018-09-03T03:35:23.895Z,5.90
2018-09-03T03:36:23.879Z,5.60
2018-09-03T03:37:23.863Z,6.40
2018-09-03T03:38:23.845Z,6.20
2018-09-03T03:39:23.834Z,5.20
2018-09-03T03:40:23.830Z,5.70
2018-09-03T03:41:23.797Z,5.90
2018-09-03T03:42:23.781Z,5.40
2018-09-03T03:43:23.773Z,6.20
2018-09-03T03:44:23.749Z,6.00
2018-09-03T03:45:23.732Z,6.30
2018-09-03T03:46:23.716Z,6.30
2018-09-03T03:47:23.699Z,5.60
2018-09-03T03:48:23.681Z,5.90
2018-09-03T03:49:23.673Z,6.10
2018-09-03T03:50:23.650Z,6.00
2018-09-03T03:51:23.634Z,6.20
2018-09-03T03:52:23.616Z,6.20
2018-09-03T03:53:23.600Z,6.00
2018-09-03T03:54:23.584Z,6.20
2018-09-03T03:55:23.565Z,5.90
2018-09-03T03:56:23.549Z,5.90
2018-09-03T03:57:23.533Z,6.40
2018-09-03T03:58:23.517Z,6.30
2018-09-03T03:59:23.500Z,6.90
2018-09-03T04:00:23.485Z,5.70
2018-09-03T04:01:23.468Z,5.70
2018-09-03T04:02:23.453Z,6.10
2018-09-03T04:03:23.448Z,5.80
2018-09-03T04:04:23.418Z,5.60
2018-09-03T04:05:23.401Z,5.90
2018-09-03T04:06:23.385Z,5.90
2018-09-03T04:07:23.367Z,6.50
2018-09-03T04:08:23.355Z,5.70
2018-09-03T04:09:23.338Z,6.00
2018-09-03T04:10:23.321Z,5.70
2018-09-03T04:11:23.301Z,5.70
2018-09-03T04:12:23.612Z,5.90
2018-09-03T04:13:23.274Z,5.40
2018-09-03T04:14:23.467Z,5.90
2018-09-03T04:15:23.236Z,6.00
2018-09-03T04:16:23.245Z,6.20
2018-09-03T04:17:23.219Z,5.90
2018-09-03T04:18:23.187Z,6.30
2018-09-03T04:19:23.173Z,5.80
2018-09-03T04:20:23.197Z,6.40
2018-09-03T04:21:23.156Z,7.00
2018-09-03T04:22:23.440Z,6.30
2018-09-03T04:23:23.262Z,6.30
2018-09-03T04:24:23.413Z,6.70
2018-09-03T04:26:23.059Z,6.40
2018-09-03T04:27:23.037Z,6.60
2018-09-03T04:28:23.026Z,6.60
2018-09-03T04:29:23.006Z,6.30
2018-09-03T04:30:22.989Z,6.00
2018-09-03T04:31:22.975Z,6.80
2018-09-03T04:32:22.956Z,7.10
2018-09-03T04:33:22.943Z,6.80
2018-09-03T04:34:22.924Z,7.20
2018-09-03T04:35:22.907Z,6.80
2018-09-03T04:36:22.890Z,7.60
2018-09-03T04:37:22.874Z,6.90
2018-09-03T04:38:22.859Z,6.60
2018-09-03T04:39:22.838Z,6.60
2018-09-03T04:40:22.825Z,6.70
2018-09-03T04:41:22.809Z,7.00
2018-09-03T04:42:22.789Z,7.20
2018-09-03T04:43:22.774Z,7.60
2018-09-03T04:44:22.758Z,7.00
2018-09-03T04:45:22.739Z,7.60
2018-09-03T04:46:22.724Z,7.40
2018-09-03T04:47:22.704Z,7.50
2018-09-03T04:48:22.690Z,7.40
2018-09-03T04:49:22.677Z,7.50
2018-09-03T04:50:22.660Z,7.10
2018-09-03T04:51:22.644Z,6.70
2018-09-03T04:52:22.624Z,7.80
2018-09-03T04:53:22.606Z,7.50
2018-09-03T04:54:22.590Z,7.50
2018-09-03T04:55:22.600Z,7.30
2018-09-03T04:56:22.560Z,8.10
2018-09-03T04:57:22.545Z,7.90
2018-09-03T04:58:22.525Z,7.40
2018-09-03T04:59:22.507Z,6.90
2018-09-03T05:00:22.492Z,7.80
2018-09-03T05:01:22.474Z,7.40
2018-09-03T05:02:22.459Z,8.30
2018-09-03T05:03:22.449Z,7.80
2018-09-03T05:04:22.430Z,7.30
2018-09-03T05:05:22.459Z,7.40
2018-09-03T05:06:22.391Z,7.50
2018-09-03T05:07:22.372Z,7.60
2018-09-03T05:08:22.357Z,7.30
2018-09-03T05:09:22.340Z,8.10
2018-09-03T05:10:22.326Z,7.80
2018-09-03T05:11:22.308Z,7.00
2018-09-03T05:12:22.290Z,7.10
2018-09-03T05:13:22.273Z,8.30
2018-09-03T05:14:22.257Z,7.80
2018-09-03T05:15:22.240Z,8.00
2018-09-03T05:16:22.223Z,8.50
2018-09-03T05:17:22.214Z,8.60
2018-09-03T05:18:22.191Z,8.00
2018-09-03T05:19:22.181Z,8.40
2018-09-03T05:20:22.164Z,8.10
2018-09-03T05:21:22.142Z,8.60
2018-09-03T05:22:22.125Z,8.00
2018-09-03T05:23:22.105Z,9.00
2018-09-03T05:24:22.090Z,8.70
2018-09-03T05:25:22.073Z,8.20
2018-09-03T05:26:22.055Z,8.60
2018-09-03T05:27:22.045Z,8.30
2018-09-03T05:28:22.026Z,8.00
2018-09-03T05:29:22.007Z,8.10
2018-09-03T05:30:21.989Z,8.10
2018-09-03T05:31:22.090Z,8.10
2018-09-03T05:32:21.956Z,8.60
2018-09-03T05:33:21.939Z,8.90
2018-09-03T05:34:21.923Z,8.70
2018-09-03T05:35:21.905Z,8.70
2018-09-03T05:36:21.890Z,9.50
2018-09-03T05:37:21.881Z,8.30
2018-09-03T05:38:21.856Z,8.70
2018-09-03T05:39:21.838Z,8.60
2018-09-03T05:40:21.823Z,9.40
2018-09-03T05:41:21.806Z,8.30
2018-09-03T05:42:21.790Z,9.20
2018-09-03T05:43:21.879Z,9.70
2018-09-03T05:44:21.757Z,8.10
2018-09-03T05:45:21.740Z,8.60
2018-09-03T05:46:21.722Z,9.00
2018-09-03T05:47:21.709Z,9.70
2018-09-03T05:48:21.688Z,9.60
2018-09-03T05:49:21.673Z,9.30
2018-09-03T05:50:21.718Z,9.50
2018-09-03T05:51:21.635Z,9.40
2018-09-03T05:52:21.624Z,9.10
2018-09-03T05:53:21.604Z,9.50
2018-09-03T05:54:21.587Z,10.10
2018-09-03T05:55:21.583Z,9.60
2018-09-03T05:56:21.553Z,10.30
2018-09-03T05:57:21.535Z,9.90
2018-09-03T05:58:21.521Z,9.10
2018-09-03T05:59:21.504Z,9.80
2018-09-03T06:00:21.488Z,10.50
2018-09-03T06:01:21.471Z,9.40
2018-09-03T06:02:21.458Z,10.10
2018-09-03T06:03:21.436Z,10.00
2018-09-03T06:04:21.420Z,10.20
2018-09-03T06:05:21.404Z,9.80
2018-09-03T06:06:21.388Z,9.90
2018-09-03T06:07:21.370Z,11.00
2018-09-03T06:08:21.362Z,10.30
2018-09-03T06:09:21.344Z,9.70
2018-09-03T06:10:21.328Z,10.50
2018-09-03T06:11:21.304Z,10.90
2018-09-03T06:12:21.290Z,10.70
2018-09-03T06:13:21.275Z,10.30
2018-09-03T06:14:21.254Z,10.10
2018-09-03T06:15:21.236Z,10.00
2018-09-03T06:16:21.219Z,10.30
2018-09-03T06:17:21.204Z,10.30
2018-09-03T06:18:21.188Z,10.00
2018-09-03T06:19:21.167Z,10.60
2018-09-03T06:20:21.153Z,10.90
2018-09-03T06:21:21.136Z,10.50
2018-09-03T06:22:21.120Z,10.60
2018-09-03T06:23:21.101Z,11.00
2018-09-03T06:24:21.087Z,10.30
2018-09-03T06:25:21.069Z,10.90
2018-09-03T06:26:21.054Z,10.30
2018-09-03T06:27:21.036Z,10.10
2018-09-03T06:28:21.020Z,9.90
2018-09-03T06:29:21.009Z,10.50
2018-09-03T06:30:20.991Z,10.50
2018-09-03T06:31:20.972Z,10.70
2018-09-03T06:32:20.952Z,10.40
2018-09-03T06:33:20.936Z,9.50
2018-09-03T06:34:20.924Z,11.10
2018-09-03T06:35:20.903Z,10.50
2018-09-03T06:36:20.886Z,11.10
2018-09-03T06:37:20.898Z,10.90
2018-09-03T06:38:20.853Z,11.40
2018-09-03T06:39:20.863Z,11.30
2018-09-03T06:40:20.821Z,10.70
2018-09-03T06:41:20.826Z,10.30
2018-09-03T06:42:20.789Z,10.80
2018-09-03T06:43:20.773Z,10.80
2018-09-03T06:44:20.756Z,10.70
2018-09-03T06:45:20.741Z,11.90
2018-09-03T06:46:20.722Z,11.30
2018-09-03T06:47:20.709Z,11.60
2018-09-03T06:48:20.690Z,11.00
2018-09-03T06:49:20.675Z,11.70
2018-09-03T06:50:20.658Z,11.50
2018-09-03T06:51:20.642Z,11.70
2018-09-03T06:52:20.631Z,11.60
2018-09-03T06:53:20.611Z,11.90
2018-09-03T06:54:20.592Z,12.30
2018-09-03T06:55:20.574Z,12.40
2018-09-03T06:56:20.558Z,11.70
2018-09-03T06:57:20.541Z,11.60
2018-09-03T06:58:20.525Z,12.90
2018-09-03T06:59:20.506Z,12.10
2018-09-03T07:00:20.491Z,12.20
2018-09-03T07:01:20.481Z,12.40
2018-09-03T07:02:20.457Z,11.30
2018-09-03T07:03:20.443Z,12.20
2018-09-03T07:04:20.432Z,11.80
2018-09-03T07:05:20.408Z,11.60
2018-09-03T07:06:20.392Z,12.30
2018-09-03T07:07:20.374Z,11.90
2018-09-03T07:08:20.358Z,12.20
2018-09-03T07:09:20.340Z,11.90
2018-09-03T07:10:20.325Z,11.90
2018-09-03T07:11:20.308Z,11.30
2018-09-03T07:12:20.293Z,12.00
2018-09-03T07:13:20.276Z,12.20
2018-09-03T07:14:20.261Z,11.80
2018-09-03T07:15:20.245Z,13.10
2018-09-03T07:16:20.224Z,12.70
2018-09-03T07:17:20.211Z,12.80
2018-09-03T07:18:20.192Z,12.60
2018-09-03T07:19:20.174Z,12.00
2018-09-03T07:20:20.160Z,12.60
2018-09-03T07:21:20.151Z,12.60
2018-09-03T07:22:20.126Z,13.20
2018-09-03T07:23:20.107Z,12.90
2018-09-03T07:24:20.096Z,12.10
2018-09-03T07:25:20.077Z,12.10
2018-09-03T07:26:20.058Z,12.10
2018-09-03T07:27:20.042Z,12.80
2018-09-03T07:28:20.036Z,11.50
2018-09-03T07:29:20.011Z,12.30
2018-09-03T07:30:19.996Z,13.00
2018-09-03T07:31:19.977Z,12.20
2018-09-03T07:32:19.961Z,11.70
2018-09-03T07:33:19.944Z,12.30
2018-09-03T07:34:19.928Z,13.00
2018-09-03T07:35:19.912Z,13.50
2018-09-03T07:36:19.895Z,12.90
2018-09-03T07:37:19.877Z,13.00
2018-09-03T07:38:19.861Z,12.80
2018-09-03T07:39:19.845Z,12.30
2018-09-03T07:40:19.828Z,13.20
2018-09-03T07:41:19.815Z,12.50
2018-09-03T07:42:19.797Z,12.20
2018-09-03T07:43:19.778Z,12.50
2018-09-03T07:44:19.762Z,14.10
2018-09-03T07:45:19.750Z,12.70
2018-09-03T07:46:19.734Z,12.30
2018-09-03T07:47:19.713Z,13.10
2018-09-03T07:48:19.700Z,12.90
2018-09-03T07:49:19.683Z,12.30
2018-09-03T07:50:19.666Z,13.00
2018-09-03T07:51:19.653Z,13.70
2018-09-03T07:52:19.636Z,13.20
2018-09-03T07:53:19.619Z,13.00
2018-09-03T07:54:19.605Z,12.90
2018-09-03T07:55:19.582Z,12.00
2018-09-03T07:56:19.568Z,13.80
2018-09-03T07:57:19.553Z,12.10
2018-09-03T07:58:19.534Z,12.90
2018-09-03T07:59:19.528Z,13.00
2018-09-03T08:00:19.501Z,12.70
2018-09-03T08:01:19.577Z,14.20
2018-09-03T08:02:19.471Z,13.30
2018-09-03T08:03:19.454Z,13.50
2018-09-03T08:04:19.436Z,13.40
2018-09-03T08:05:19.423Z,13.30
2018-09-03T08:06:19.404Z,12.90
2018-09-03T08:07:19.453Z,13.50
2018-09-03T08:08:19.372Z,13.00
2018-09-03T08:09:19.355Z,12.40
2018-09-03T08:10:19.341Z,13.00
2018-09-03T08:11:19.327Z,12.10
2018-09-03T08:12:19.306Z,13.20
2018-09-03T08:13:19.293Z,12.90
2018-09-03T08:14:19.274Z,13.10
2018-09-03T08:15:19.267Z,13.10
2018-09-03T08:16:19.244Z,13.40
2018-09-03T08:17:19.222Z,13.10
2018-09-03T08:18:19.206Z,13.40
2018-09-03T08:19:19.189Z,13.10
2018-09-03T08:20:19.175Z,12.40
2018-09-03T08:21:19.164Z,12.70
2018-09-03T08:22:19.143Z,12.80
2018-09-03T08:23:19.124Z,12.20
2018-09-03T08:24:19.113Z,12.60
2018-09-03T08:25:19.095Z,12.30
2018-09-03T08:26:19.077Z,12.50
2018-09-03T08:27:19.060Z,11.70
2018-09-03T08:28:19.044Z,12.60
2018-09-03T08:29:19.029Z,12.10
2018-09-03T08:30:19.065Z,13.20
2018-09-03T08:31:19.013Z,13.00
2018-09-03T08:32:18.979Z,12.20
2018-09-03T08:33:18.971Z,12.30
2018-09-03T08:34:18.947Z,12.90
2018-09-03T08:35:18.933Z,11.80
2018-09-03T08:36:18.915Z,12.30
2018-09-03T08:37:18.900Z,12.20
2018-09-03T08:38:18.885Z,13.00
2018-09-03T08:39:18.868Z,12.40
2018-09-03T08:40:18.852Z,12.80
2018-09-03T08:41:18.839Z,12.80
2018-09-03T08:42:18.819Z,13.20
2018-09-03T08:43:18.803Z,11.90
2018-09-03T08:44:18.791Z,12.20
2018-09-03T08:45:18.773Z,12.30
2018-09-03T08:46:18.758Z,12.90
2018-09-03T08:47:18.740Z,13.10
2018-09-03T08:48:18.726Z,12.80
2018-09-03T08:49:18.714Z,12.50
2018-09-03T08:50:18.704Z,12.80
2018-09-03T08:51:18.677Z,13.30
2018-09-03T08:52:18.678Z,12.90
2018-09-03T08:53:18.650Z,13.60
2018-09-03T08:54:18.631Z,12.90
2018-09-03T08:55:18.612Z,13.40
2018-09-03T08:56:18.608Z,12.60
2018-09-03T08:57:18.587Z,12.60
2018-09-03T08:58:18.576Z,13.10
2018-09-03T08:59:18.552Z,12.70
2018-09-03T09:00:18.538Z,12.50
2018-09-03T09:01:18.520Z,13.20
2018-09-03T09:02:18.504Z,13.40
2018-09-03T09:03:18.490Z,13.10
2018-09-03T09:04:18.473Z,12.90
2018-09-03T09:05:18.458Z,12.30
2018-09-03T09:06:18.443Z,12.00
2018-09-03T09:07:18.430Z,12.80
2018-09-03T09:08:18.409Z,12.90
2018-09-03T09:09:18.395Z,13.10
2018-09-03T09:10:18.380Z,12.90
2018-09-03T09:11:18.370Z,13.30
2018-09-03T09:12:18.349Z,14.00
2018-09-03T09:13:18.331Z,13.20
2018-09-03T09:14:18.322Z,13.20
2018-09-03T09:15:18.304Z,11.80
2018-09-03T09:16:18.296Z,13.20
2018-09-03T09:17:18.277Z,13.40
2018-09-03T09:18:18.257Z,12.70
2018-09-03T09:19:18.244Z,12.80
2018-09-03T09:20:18.224Z,12.20
2018-09-03T09:21:18.218Z,13.90
2018-09-03T09:22:18.199Z,13.20
2018-09-03T09:23:18.182Z,13.20
2018-09-03T09:24:18.168Z,14.10
2018-09-03T09:25:18.155Z,13.10
2018-09-03T09:26:18.138Z,13.40
2018-09-03T09:27:18.122Z,13.40
2018-09-03T09:28:18.103Z,12.90
2018-09-03T09:29:18.088Z,11.20
2018-09-03T09:30:18.078Z,12.90
2018-09-03T09:31:18.061Z,12.30
2018-09-03T09:32:18.046Z,13.00
2018-09-03T09:33:18.038Z,12.80
2018-09-03T09:34:18.021Z,12.40
2018-09-03T09:35:18.006Z,12.50
2018-09-03T09:36:17.983Z,12.20
2018-09-03T09:37:17.978Z,12.10
2018-09-03T09:38:17.955Z,11.30
2018-09-03T09:39:17.940Z,11.80
2018-09-03T09:40:17.921Z,12.60
2018-09-03T09:41:17.933Z,11.80
2018-09-03T09:42:17.893Z,12.50
2018-09-03T09:43:17.887Z,13.70
2018-09-03T09:44:17.864Z,13.60
2018-09-03T09:45:17.853Z,12.80
2018-09-03T09:46:17.837Z,13.30
2018-09-03T09:47:17.839Z,12.60
2018-09-03T09:48:17.807Z,13.10
2018-09-03T09:49:17.790Z,12.60
2018-09-03T09:50:17.774Z,13.10
2018-09-03T09:51:17.758Z,12.80
2018-09-03T09:52:17.750Z,13.40
2018-09-03T09:53:17.737Z,13.20
2018-09-03T09:54:17.715Z,12.80
2018-09-03T09:55:17.705Z,13.50
2018-09-03T09:56:17.685Z,12.90
2018-09-03T09:57:17.673Z,13.20
2018-09-03T09:58:17.662Z,12.00
2018-09-03T09:59:17.648Z,12.80
2018-09-03T10:00:17.628Z,12.20
2018-09-03T10:01:17.613Z,12.80
2018-09-03T10:02:17.599Z,13.60
2018-09-03T10:03:17.586Z,13.30
2018-09-03T10:04:17.593Z,13.50
2018-09-03T10:05:17.554Z,13.40
2018-09-03T10:06:17.541Z,13.50
2018-09-03T10:07:17.530Z,12.80
2018-09-03T10:08:17.514Z,13.90
2018-09-03T10:09:17.496Z,13.10
2018-09-03T10:10:17.495Z,14.50
2018-09-03T10:11:17.467Z,12.90
2018-09-03T10:12:17.451Z,14.20
2018-09-03T10:13:17.442Z,12.80
2018-09-03T10:14:17.424Z,13.80
2018-09-03T10:15:17.424Z,12.90
2018-09-03T10:16:17.411Z,12.30
2018-09-03T10:17:17.382Z,13.70
2018-09-03T10:18:17.366Z,13.60
2018-09-03T10:19:17.356Z,12.60
2018-09-03T10:20:17.338Z,13.90
2018-09-03T10:21:17.327Z,13.50
2018-09-03T10:22:17.310Z,13.80
2018-09-03T10:23:17.296Z,13.70
2018-09-03T10:24:17.281Z,15.10
2018-09-03T10:25:17.265Z,13.10
2018-09-03T10:26:17.345Z,13.80
2018-09-03T10:27:17.237Z,13.30
2018-09-03T10:28:17.238Z,13.70
2018-09-03T10:29:17.211Z,13.60
2018-09-03T10:30:17.196Z,15.10
2018-09-03T10:31:17.187Z,14.20
2018-09-03T10:32:17.170Z,14.20
2018-09-03T10:33:17.154Z,14.80
2018-09-03T10:34:17.150Z,15.60
2018-09-03T10:35:17.127Z,15.60
2018-09-03T10:36:17.126Z,15.20
2018-09-03T10:37:17.099Z,15.00
2018-09-03T10:38:17.145Z,15.80
2018-09-03T10:39:17.071Z,16.70
2018-09-03T10:40:17.057Z,16.40
2018-09-03T10:41:17.047Z,14.80
2018-09-03T10:42:17.031Z,16.20
2018-09-03T10:43:17.014Z,16.40
2018-09-03T10:44:17.012Z,17.50
2018-09-03T10:45:16.988Z,17.50
2018-09-03T10:46:16.969Z,16.70
2018-09-03T10:47:17.068Z,16.40
2018-09-03T10:48:16.948Z,17.60
2018-09-03T10:49:16.929Z,14.80
2018-09-03T10:50:16.917Z,16.70
2018-09-03T10:51:16.900Z,16.50
2018-09-03T10:52:16.890Z,16.30
2018-09-03T10:53:16.872Z,16.30
2018-09-03T10:54:16.860Z,14.90
2018-09-03T10:55:16.841Z,15.50
2018-09-03T10:56:16.915Z,16.50
2018-09-03T10:57:16.819Z,16.20
2018-09-03T10:58:16.799Z,15.90
2018-09-03T10:59:16.784Z,15.80
2018-09-03T11:00:16.769Z,15.40
2018-09-03T11:01:16.760Z,15.40
2018-09-03T11:02:16.746Z,15.90
2018-09-03T11:03:16.739Z,16.40
2018-09-03T11:04:16.714Z,17.40
2018-09-03T11:05:16.749Z,16.50
2018-09-03T11:06:16.691Z,15.30
2018-09-03T11:07:16.675Z,15.60
2018-09-03T11:08:16.657Z,15.80
2018-09-03T11:09:16.652Z,15.40
2018-09-03T11:10:16.629Z,16.50
2018-09-03T11:11:16.619Z,15.40
2018-09-03T11:12:16.601Z,16.00
2018-09-03T11:13:16.587Z,17.00
2018-09-03T11:14:16.658Z,19.80
2018-09-03T11:15:16.563Z,19.70
2018-09-03T11:16:16.545Z,19.90
2018-09-03T11:17:16.539Z,19.70
2018-09-03T11:18:16.516Z,20.10
2018-09-03T11:19:16.504Z,18.90
2018-09-03T11:20:16.491Z,20.80
2018-09-03T11:21:16.627Z,19.30
2018-09-03T11:22:16.461Z,18.90
2018-09-03T11:23:16.443Z,18.80
2018-09-03T11:24:16.428Z,19.90
2018-09-03T11:25:16.415Z,18.70
2018-09-03T11:26:16.402Z,17.60
2018-09-03T11:27:16.402Z,17.60
2018-09-03T11:28:16.373Z,18.70
2018-09-03T11:29:16.357Z,19.70
2018-09-03T11:30:16.345Z,18.20
2018-09-03T11:31:16.335Z,17.60
2018-09-03T11:32:16.352Z,18.90
2018-09-03T11:33:16.304Z,17.80
2018-09-03T11:34:16.297Z,20.60
2018-09-03T11:35:16.271Z,18.20
2018-09-03T11:36:16.259Z,18.10
2018-09-03T11:37:16.245Z,18.30
2018-09-03T11:38:16.236Z,17.10
2018-09-03T11:39:16.227Z,17.00
2018-09-03T11:40:16.202Z,16.90
2018-09-03T11:41:16.194Z,17.70
2018-09-03T11:42:16.184Z,16.80
2018-09-03T11:43:16.160Z,18.10
2018-09-03T11:44:16.156Z,16.50
2018-09-03T11:45:16.141Z,17.00
2018-09-03T11:46:16.147Z,17.20
2018-09-03T11:47:16.123Z,19.30
2018-09-03T11:48:16.095Z,18.00
2018-09-03T11:49:16.134Z,17.10
2018-09-03T11:50:16.063Z,20.00
2018-09-03T11:51:16.056Z,18.90
2018-09-03T11:52:16.040Z,18.00
2018-09-03T11:53:16.035Z,18.40
2018-09-03T11:54:16.015Z,17.20
2018-09-03T11:55:15.993Z,18.50
2018-09-03T11:56:15.980Z,17.40
2018-09-03T11:57:15.968Z,18.40
2018-09-03T11:58:15.955Z,19.80
2018-09-03T11:59:15.948Z,19.40
2018-09-03T12:00:15.927Z,18.90
2018-09-03T12:01:15.914Z,19.10
2018-09-03T12:02:15.899Z,19.60
2018-09-03T12:03:15.884Z,19.10
2018-09-03T12:04:15.872Z,18.60
2018-09-03T12:05:15.860Z,18.10
2018-09-03T12:06:15.848Z,19.50
2018-09-03T12:07:15.830Z,19.60
2018-09-03T12:08:15.817Z,17.90
2018-09-03T12:09:15.802Z,20.20
2018-09-03T12:10:15.793Z,20.60
2018-09-03T12:11:15.775Z,22.50
2018-09-03T12:12:15.763Z,21.90
2018-09-03T12:13:15.749Z,22.10
2018-09-03T12:14:15.743Z,22.00
2018-09-03T12:15:15.726Z,22.30
2018-09-03T12:16:15.712Z,22.20
2018-09-03T12:17:15.702Z,22.10
2018-09-03T12:18:15.689Z,21.10
2018-09-03T12:19:15.671Z,22.10
2018-09-03T12:20:15.653Z,21.00
2018-09-03T12:21:15.741Z,21.90
2018-09-03T12:22:15.630Z,20.50
2018-09-03T12:23:15.615Z,21.30
2018-09-03T12:24:15.598Z,22.20
2018-09-03T12:25:15.588Z,23.80
2018-09-03T12:26:15.571Z,22.60
2018-09-03T12:27:15.561Z,21.90
2018-09-03T12:28:15.542Z,24.00
2018-09-03T12:29:15.531Z,23.70
2018-09-03T12:30:15.518Z,23.70
2018-09-03T12:31:15.510Z,23.20
2018-09-03T12:32:15.488Z,23.30
2018-09-03T12:33:15.475Z,23.10
2018-09-03T12:34:15.462Z,22.30
2018-09-03T12:35:15.459Z,23.40
2018-09-03T12:36:15.433Z,22.60
2018-09-03T12:37:15.421Z,22.60
2018-09-03T12:38:15.404Z,23.10
2018-09-03T12:39:15.392Z,24.90
2018-09-03T12:40:15.383Z,23.00
2018-09-03T12:41:15.369Z,22.50
2018-09-03T12:42:15.354Z,24.40
2018-09-03T12:43:15.339Z,25.10
2018-09-03T12:44:15.323Z,24.50
2018-09-03T12:45:15.312Z,26.20
2018-09-03T12:46:15.330Z,26.40
2018-09-03T12:47:15.283Z,26.90
2018-09-03T12:48:15.267Z,25.50
2018-09-03T12:49:15.265Z,25.60
2018-09-03T12:50:15.293Z,26.00
2018-09-03T12:51:15.262Z,26.10
2018-09-03T12:52:15.226Z,26.10
2018-09-03T12:53:15.213Z,28.90
2018-09-03T12:54:15.196Z,26.00
2018-09-03T12:55:15.173Z,24.40
2018-09-03T12:56:15.157Z,25.90
2018-09-03T12:57:15.142Z,26.50
2018-09-03T12:58:15.130Z,25.80
2018-09-03T12:59:15.114Z,25.10
2018-09-03T13:00:15.102Z,24.20
2018-09-03T13:01:15.088Z,25.80
2018-09-03T13:02:15.073Z,24.90
2018-09-03T13:03:15.307Z,25.70
2018-09-03T13:04:15.045Z,26.50
2018-09-03T13:05:15.033Z,24.40